Date,TemperatureHighF,TemperatureAvgF,TemperatureLowF,DewpointHighF,DewpointAvgF,DewpointLowF,HumidityHigh,HumidityAvg,HumidityLow,PressureMaxIn,PressureMinIn,WindSpeedMaxMPH,WindSpeedAvgMPH,GustSpeedMaxMPH,PrecipitationSumIn
2013-11-1,64,48,39,32,27,25,60,46,25,0.00,0.00,0,0,0,0.00
2013-11-2,63,48,40,29,26,23,53,44,27,0.00,0.00,0,0,0,0.00
2013-11-3,54,46,41,39,34,28,77,64,49,24.02,0.00,0,0,0,0.00
2013-11-4,50,39,34,36,31,28,89,76,58,23.93,23.93,0,0,0,0.00
2013-11-5,52,39,32,27,22,14,77,55,24,0.00,0.00,0,0,0,0.00
2013-11-6,61,46,36,25,17,13,42,33,21,0.00,0.00,0,0,0,0.00
2013-11-7,61,50,41,27,23,20,47,37,25,0.00,0.00,0,0,0,0.00
2013-11-8,67,52,42,27,24,18,44,34,22,0.00,0.00,0,0,0,0.00
2013-11-9,64,52,44,26,18,12,34,28,19,24.16,24.16,0,0,0,0.00
2013-11-10,64,52,43,23,16,14,33,26,16,24.24,0.00,0,0,0,0.00
2013-11-11,68,53,43,23,18,14,33,27,17,0.00,0.00,0,0,0,0.00
2013-11-12,64,55,49,25,20,14,29,25,21,24.36,24.36,0,0,0,0.00
2013-11-13,67,54,46,36,29,22,46,39,26,24.29,0.00,0,0,0,0.00
2013-11-14,64,53,46,32,29,26,50,40,25,0.00,0.00,0,0,0,0.00
2013-11-15,46,43,39,37,34,31,80,72,60,23.87,0.00,0,0,0,0.00
2013-11-16,44,39,34,36,33,30,88,81,71,0.00,0.00,0,0,0,0.00
2013-11-17,52,42,32,33,30,26,80,64,46,0.00,0.00,0,0,0,0.00
2013-11-18,53,43,36,36,33,28,78,68,50,0.00,0.00,0,0,0,0.00
2013-11-19,46,41,36,36,34,32,84,77,68,24.07,0.00,0,0,0,0.00
2013-11-20,47,42,38,40,37,34,90,84,77,23.98,0.00,0,0,0,0.00
2013-11-21,41,40,38,39,38,34,94,92,85,0.00,0.00,0,0,0,1.40
2013-11-22,34,33,32,28,24,17,82,71,51,24.01,0.00,0,0,0,0.75
2013-11-23,41,33,0,23,15,0,48,17,1,0.00,0.00,0,0,0,0.06
2013-11-24,45,36,30,31,18,4,58,16,1,24.14,24.14,0,0,0,0.06
2013-11-25,53,40,32,37,24,14,57,23,1,0.00,0.00,0,0,0,0.00
2013-11-26,55,44,37,33,26,19,58,51,37,24.29,0.00,0,0,0,0.00
2013-11-27,51,42,37,33,28,24,59,56,47,0.00,0.00,0,0,0,0.00
2013-11-28,47,40,35,30,18,3,58,42,25,24.04,24.04,0,0,0,0.00
2013-11-29,49,40,34,31,22,13,58,48,39,24.19,24.19,0,0,0,0.00
2013-11-30,51,42,35,32,24,17,56,50,39,24.27,0.00,0,0,0,0.00